Time;durP1;ratioP1;P1;durP2;ratioP2;P2;SDS_P1;SDS_P2;PMS_P1;PMS_P2;Temp;Humidity;BMP_temperature;BMP_pressure;BME280_temperature;BME280_humidity;BME280_pressure;Samples;Min_cycle;Max_cycle;Signal;HPM_P1;HPM_P2
2022/08/19 00:00:07;;;;;;;4.53;2.70;;;18.90;99.90;;;;;;5046178;28;20041;-34
2022/08/19 00:02:33;;;;;;;4.13;2.38;;;18.80;99.90;;;;;;5043742;28;20494;-34
2022/08/19 00:04:59;;;;;;;3.83;2.80;;;18.80;99.90;;;;;;5046109;28;20029;-34
2022/08/19 00:07:25;;;;;;;4.28;2.65;;;18.70;99.90;;;;;;5035800;28;20060;-39
2022/08/19 00:09:50;;;;;;;4.00;2.63;;;18.70;99.90;;;;;;5042798;28;20033;-34
2022/08/19 00:12:16;;;;;;;5.22;3.15;;;18.60;99.90;;;;;;5041140;28;20051;-34
2022/08/19 00:14:42;;;;;;;5.63;3.17;;;18.60;99.90;;;;;;5044556;28;20029;-35
2022/08/19 00:17:08;;;;;;;3.83;2.67;;;18.60;99.90;;;;;;5034582;28;20041;-34
2022/08/19 00:19:35;;;;;;;6.32;3.08;;;18.60;99.90;;;;;;5041799;28;20406;-34
2022/08/19 00:22:02;;;;;;;4.88;3.53;;;18.70;99.90;;;;;;5039166;28;20037;-34
2022/08/19 00:24:28;;;;;;;5.15;3.60;;;18.60;99.90;;;;;;5042408;28;20513;-34
2022/08/19 00:26:56;;;;;;;7.35;3.30;;;18.60;99.90;;;;;;5036929;28;20037;-34
2022/08/19 00:29:23;;;;;;;4.78;3.58;;;18.60;99.90;;;;;;5047019;28;20045;-34
2022/08/19 00:31:52;;;;;;;4.57;3.60;;;18.50;99.90;;;;;;5040965;28;20045;-34
2022/08/19 00:34:18;;;;;;;5.25;3.65;;;18.50;99.90;;;;;;5047309;28;20041;-38
2022/08/19 00:36:44;;;;;;;5.10;2.75;;;18.50;99.90;;;;;;5039711;28;20086;-34
2022/08/19 00:39:11;;;;;;;6.22;3.33;;;18.50;99.90;;;;;;5040333;28;20041;-34
2022/08/19 00:41:38;;;;;;;7.10;4.68;;;18.50;99.90;;;;;;5039236;28;20434;-34
2022/08/19 00:44:19;;;;;;;5.35;4.00;;;18.50;99.90;;;;;;5043169;28;20037;-34
2022/08/19 00:46:47;;;;;;;5.60;3.38;;;18.40;99.90;;;;;;5037091;28;20045;-34
2022/08/19 00:49:22;;;;;;;9.80;3.83;;;18.40;99.90;;;;;;5035041;28;20123;-34
2022/08/19 00:51:52;;;;;;;5.22;2.70;;;18.30;99.90;;;;;;5042288;28;20117;-34
2022/08/19 00:54:19;;;;;;;5.65;3.38;;;18.30;99.90;;;;;;5035094;28;20052;-34
2022/08/19 00:56:46;;;;;;;4.25;3.13;;;18.30;99.90;;;;;;5040875;28;20122;-34
2022/08/19 00:59:12;;;;;;;4.85;3.45;;;18.20;99.90;;;;;;5036568;28;20135;-34
2022/08/19 01:01:41;;;;;;;3.53;2.58;;;18.20;99.90;;;;;;5041595;28;20033;-34
2022/08/19 01:04:07;;;;;;;5.88;3.20;;;18.20;99.90;;;;;;5038047;28;20037;-34
2022/08/19 01:06:35;;;;;;;4.95;3.13;;;18.10;99.90;;;;;;5041308;28;20163;-34
2022/08/19 01:09:01;;;;;;;7.00;3.55;;;18.10;99.90;;;;;;5036779;28;20045;-35
2022/08/19 01:11:29;;;;;;;6.35;3.75;;;18.10;99.90;;;;;;5036402;28;20036;-34
2022/08/19 01:13:55;;;;;;;5.47;3.92;;;18.10;99.90;;;;;;5045655;28;20045;-34
2022/08/19 01:16:24;;;;;;;6.75;3.47;;;18.10;99.90;;;;;;5044928;28;20075;-34
2022/08/19 01:18:51;;;;;;;7.10;3.83;;;18.00;99.90;;;;;;5039844;28;20135;-34
2022/08/19 01:21:44;;;;;;;7.05;4.35;;;18.00;99.90;;;;;;5037590;28;20033;-42
2022/08/19 01:24:09;;;;;;;5.47;3.67;;;18.10;99.90;;;;;;5040954;28;20079;-34
2022/08/19 01:26:41;;;;;;;6.55;4.38;;;18.00;99.90;;;;;;5035954;28;20033;-34
2022/08/19 01:29:07;;;;;;;7.60;4.03;;;17.90;99.90;;;;;;5041262;28;20037;-45
2022/08/19 01:31:34;;;;;;;6.63;4.45;;;17.90;99.90;;;;;;5041503;28;20029;-34
2022/08/19 01:34:01;;;;;;;7.18;4.70;;;17.80;99.90;;;;;;5042167;28;20052;-34
2022/08/19 01:36:33;;;;;;;5.90;4.20;;;17.80;99.90;;;;;;5036775;28;20128;-34
2022/08/19 01:39:00;;;;;;;;;;;17.80;99.90;;;;;;5039865;28;20136;-34
2022/08/19 01:41:26;;;;;;;7.22;4.63;;;17.70;99.90;;;;;;5041098;28;19916;-34
2022/08/19 01:43:52;;;;;;;6.60;4.35;;;17.70;99.90;;;;;;5044181;28;20059;-34
2022/08/19 01:46:19;;;;;;;6.15;4.60;;;17.70;99.90;;;;;;5042348;28;20429;-34
2022/08/19 01:48:45;;;;;;;5.60;3.95;;;17.70;99.90;;;;;;5036661;28;20048;-34
2022/08/19 01:51:12;;;;;;;7.65;5.10;;;17.70;99.90;;;;;;5038053;28;20066;-34
2022/08/19 01:53:38;;;;;;;6.43;3.60;;;17.70;99.90;;;;;;5039709;28;20041;-34
2022/08/19 01:56:05;;;;;;;6.88;4.50;;;17.70;99.90;;;;;;5036971;28;20497;-34
2022/08/19 01:58:46;;;;;;;6.78;4.57;;;17.60;99.90;;;;;;5039716;28;20160;-34
2022/08/19 02:01:12;;;;;;;5.10;4.00;;;17.60;99.90;;;;;;5033073;28;20099;-34
2022/08/19 02:03:38;;;;;;;6.15;4.22;;;17.60;99.90;;;;;;5041211;28;20029;-34
2022/08/19 02:06:05;;;;;;;9.18;5.30;;;17.50;99.90;;;;;;5033999;28;20440;-35
2022/08/19 02:08:32;;;;;;;8.70;5.22;;;17.50;99.90;;;;;;5045330;28;20051;-34
2022/08/19 02:10:58;;;;;;;8.50;4.90;;;17.50;99.90;;;;;;5038411;28;20041;-34
2022/08/19 02:13:26;;;;;;;8.90;5.78;;;17.50;99.90;;;;;;5044206;28;20078;-34
2022/08/19 02:15:51;;;;;;;10.30;5.65;;;17.50;99.90;;;;;;5038870;28;20521;-34
2022/08/19 02:18:17;;;;;;;7.95;5.45;;;17.50;99.90;;;;;;5033515;28;20080;-33
2022/08/19 02:20:44;;;;;;;8.63;6.03;;;17.40;99.90;;;;;;5037937;28;20116;-33
2022/08/19 02:23:11;;;;;;;8.40;6.07;;;17.40;99.90;;;;;;5044449;28;20045;-34
2022/08/19 02:25:38;;;;;;;7.35;5.57;;;17.40;99.90;;;;;;5035940;28;20078;-34
2022/08/19 02:28:04;;;;;;;9.25;5.25;;;17.40;99.90;;;;;;5037260;28;20038;-34
2022/08/19 02:30:30;;;;;;;7.22;5.43;;;17.40;99.90;;;;;;5038936;28;20124;-34
2022/08/19 02:32:56;;;;;;;7.53;5.80;;;17.40;99.90;;;;;;5034408;28;20178;-34
2022/08/19 02:35:22;;;;;;;9.90;6.05;;;17.40;99.90;;;;;;5031564;28;20108;-34
2022/08/19 02:40:36;;;;;;;8.90;6.03;;;17.40;99.90;;;;;;5037034;28;20061;-34
2022/08/19 02:43:09;;;;;;;8.65;6.53;;;17.30;99.90;;;;;;5035714;28;20519;-34
2022/08/19 02:45:36;;;;;;;9.00;5.88;;;17.30;99.90;;;;;;5035799;28;20098;-34
2022/08/19 02:48:02;;;;;;;7.72;5.43;;;17.30;99.90;;;;;;5039251;28;20098;-34
2022/08/19 02:50:28;;;;;;;11.10;6.47;;;17.20;99.90;;;;;;5045844;28;20034;-34
2022/08/19 02:52:54;;;;;;;7.65;5.40;;;17.20;99.90;;;;;;5040468;28;20402;-33
2022/08/19 02:55:20;;;;;;;6.53;4.75;;;17.20;99.90;;;;;;5046475;28;20164;-34
2022/08/19 02:57:46;;;;;;;7.75;4.63;;;17.30;99.90;;;;;;5041211;28;20049;-41
2022/08/19 03:00:13;;;;;;;8.38;5.32;;;17.30;99.90;;;;;;5039345;28;20437;-34
2022/08/19 03:02:39;;;;;;;8.07;5.50;;;17.20;99.90;;;;;;5037538;28;20033;-34
2022/08/19 03:05:07;;;;;;;12.70;5.95;;;17.20;99.90;;;;;;5041605;28;20044;-34
2022/08/19 03:07:33;;;;;;;8.10;5.78;;;17.20;99.90;;;;;;5038422;28;20033;-34
2022/08/19 03:09:58;;;;;;;7.32;5.47;;;17.20;99.90;;;;;;5040903;28;20068;-34
2022/08/19 03:12:24;;;;;;;11.20;6.00;;;17.20;99.90;;;;;;5032763;28;20034;-34
2022/08/19 03:14:51;;;;;;;8.48;5.32;;;17.20;99.90;;;;;;5042032;28;20041;-34
2022/08/19 03:17:17;;;;;;;12.02;5.47;;;17.20;99.90;;;;;;5036720;28;20102;-34
2022/08/19 03:19:43;;;;;;;7.90;5.32;;;17.20;99.90;;;;;;5044733;28;20041;-34
2022/08/19 03:22:08;;;;;;;7.80;6.00;;;17.20;99.90;;;;;;5039907;28;20045;-34
2022/08/19 03:24:34;;;;;;;7.13;4.45;;;17.20;99.90;;;;;;5045472;28;20035;-34
2022/08/19 03:27:00;;;;;;;7.57;5.55;;;17.10;99.90;;;;;;5043463;28;20040;-34
2022/08/19 03:29:28;;;;;;;8.35;5.57;;;17.20;99.90;;;;;;5042212;28;20083;-34
2022/08/19 03:31:54;;;;;;;8.93;6.10;;;17.20;99.90;;;;;;5042289;28;20069;-34
2022/08/19 03:34:28;;;;;;;9.50;5.28;;;17.20;99.90;;;;;;5041618;28;20045;-34
2022/08/19 03:36:56;;;;;;;9.40;6.30;;;17.20;99.90;;;;;;5048789;28;20036;-47
2022/08/19 03:39:23;;;;;;;8.70;6.22;;;17.10;99.90;;;;;;5038233;28;20072;-34
2022/08/19 03:41:50;;;;;;;8.85;6.03;;;17.00;99.90;;;;;;5037464;28;20033;-34
2022/08/19 03:44:20;;;;;;;9.20;6.45;;;17.00;99.90;;;;;;5043868;28;20482;-34
2022/08/19 03:46:51;;;;;;;9.75;6.07;;;16.90;99.90;;;;;;5045627;28;20041;-34
2022/08/19 03:49:18;;;;;;;10.02;6.60;;;16.80;99.90;;;;;;5037002;28;20041;-34
2022/08/19 03:51:43;;;;;;;9.65;6.50;;;16.80;99.90;;;;;;5042290;28;20045;-34
2022/08/19 03:54:12;;;;;;;9.18;5.75;;;16.80;99.90;;;;;;5041481;28;20095;-34
2022/08/19 03:56:40;;;;;;;8.25;5.57;;;16.80;99.90;;;;;;5047459;28;20564;-34
2022/08/19 03:59:08;;;;;;;10.77;6.10;;;16.80;99.90;;;;;;5035809;28;20068;-34
2022/08/19 04:01:35;;;;;;;10.23;5.97;;;16.80;99.90;;;;;;5044170;28;20032;-34
2022/08/19 04:04:00;;;;;;;7.07;4.65;;;16.80;99.90;;;;;;5048663;28;20050;-34
2022/08/19 04:06:30;;;;;;;7.57;5.50;;;16.70;99.90;;;;;;5052702;28;20111;-33
2022/08/19 04:08:58;;;;;;;9.15;6.05;;;16.80;99.90;;;;;;5039610;28;20045;-34
2022/08/19 04:11:26;;;;;;;7.72;5.55;;;16.80;99.90;;;;;;5038532;28;20037;-33
2022/08/19 04:13:53;;;;;;;7.00;5.03;;;16.80;99.90;;;;;;5037745;28;20491;-34
2022/08/19 04:16:20;;;;;;;9.65;6.30;;;16.80;99.90;;;;;;5046939;28;20049;-34
2022/08/19 04:18:47;;;;;;;8.40;5.28;;;16.70;99.90;;;;;;5047918;28;20053;-34
2022/08/19 04:21:22;;;;;;;7.72;5.10;;;16.70;99.90;;;;;;5038923;28;20038;-39
2022/08/19 04:23:48;;;;;;;7.00;4.80;;;16.60;99.90;;;;;;5037325;28;20117;-34
2022/08/19 04:26:21;;;;;;;7.72;5.40;;;16.60;99.90;;;;;;5041354;28;20044;-33
2022/08/19 04:28:46;;;;;;;9.25;6.03;;;16.60;99.90;;;;;;5043427;28;20043;-34
2022/08/19 04:31:15;;;;;;;9.57;6.28;;;16.50;99.90;;;;;;5041899;28;20036;-34
2022/08/19 04:33:41;;;;;;;9.40;6.30;;;16.50;99.90;;;;;;5040557;28;20049;-34
2022/08/19 04:36:07;;;;;;;7.70;5.78;;;16.50;99.90;;;;;;5044417;28;20430;-34
2022/08/19 04:38:33;;;;;;;8.30;5.63;;;16.50;99.90;;;;;;5048764;28;20047;-34
2022/08/19 04:43:48;;;;;;;8.95;5.88;;;16.50;99.90;;;;;;5045697;28;20045;-34
2022/08/19 04:46:14;;;;;;;8.27;6.23;;;16.50;99.90;;;;;;5038697;28;20053;-34
2022/08/19 04:48:40;;;;;;;8.20;4.72;;;16.40;99.90;;;;;;5038394;28;20044;-33
2022/08/19 04:51:09;;;;;;;9.52;6.38;;;16.40;99.90;;;;;;5039497;28;20052;-34
2022/08/19 04:53:37;;;;;;;9.43;6.75;;;16.50;99.90;;;;;;5043381;28;20103;-34
2022/08/19 04:56:14;;;;;;;9.50;6.15;;;16.50;99.90;;;;;;5040034;28;20080;-34
2022/08/19 04:58:42;;;;;;;7.40;5.10;;;16.40;99.90;;;;;;5038711;28;20037;-34
2022/08/19 05:01:18;;;;;;;13.55;7.20;;;16.40;99.90;;;;;;5040901;28;20099;-34
2022/08/19 05:03:44;;;;;;;10.50;7.20;;;16.50;99.90;;;;;;5048227;28;20502;-34
2022/08/19 05:06:13;;;;;;;7.22;5.15;;;16.40;99.90;;;;;;5042061;28;20120;-34
2022/08/19 05:08:42;;;;;;;11.60;6.43;;;16.40;99.90;;;;;;5039799;28;20047;-34
2022/08/19 05:11:24;;;;;;;9.00;6.10;;;16.50;99.90;;;;;;5039653;28;20049;-34
2022/08/19 05:13:50;;;;;;;8.18;5.93;;;16.50;99.90;;;;;;5042504;28;20071;-34
2022/08/19 05:16:18;;;;;;;9.25;6.35;;;16.50;99.90;;;;;;5041707;28;20049;-34
2022/08/19 05:24:15;;;;;;;11.35;7.70;;;16.60;99.90;;;;;;5041172;28;20397;-34
2022/08/19 05:26:45;;;;;;;8.45;5.63;;;16.60;99.90;;;;;;5040897;28;20038;-34
2022/08/19 05:29:13;;;;;;;11.48;7.53;;;16.60;99.90;;;;;;5045920;28;20088;-34
2022/08/19 05:31:39;;;;;;;13.52;7.90;;;16.60;99.90;;;;;;5046764;28;20048;-33
2022/08/19 05:34:05;;;;;;;10.05;7.43;;;16.60;99.90;;;;;;5044210;28;20033;-34
2022/08/19 05:36:40;;;;;;;12.35;7.50;;;16.60;99.90;;;;;;5032036;28;20136;-34
2022/08/19 05:39:08;;;;;;;12.63;7.78;;;16.60;99.90;;;;;;5034921;28;20041;-34
2022/08/19 05:41:34;;;;;;;10.30;7.10;;;16.60;99.90;;;;;;5038720;28;20048;-34
2022/08/19 05:44:06;;;;;;;11.30;7.72;;;16.70;99.90;;;;;;5047418;28;20051;-33
2022/08/19 05:46:32;;;;;;;8.43;5.80;;;16.80;99.90;;;;;;5042415;28;20038;-34
2022/08/19 05:48:58;;;;;;;16.00;8.48;;;16.80;99.90;;;;;;5044813;28;20047;-34
2022/08/19 05:51:25;;;;;;;10.68;7.45;;;16.90;99.90;;;;;;5045472;28;20495;-34
2022/08/19 05:53:51;;;;;;;14.77;8.93;;;16.90;99.90;;;;;;5037141;28;20061;-34
2022/08/19 05:56:17;;;;;;;12.18;8.45;;;17.00;99.90;;;;;;5042330;28;20044;-34
2022/08/19 05:58:44;;;;;;;12.88;8.43;;;17.00;99.90;;;;;;5038117;28;20501;-34
2022/08/19 06:01:14;;;;;;;11.23;8.07;;;17.00;99.90;;;;;;5035147;28;20069;-34
2022/08/19 06:03:40;;;;;;;12.68;8.80;;;17.10;99.90;;;;;;5035108;28;20037;-34
2022/08/19 06:06:09;;;;;;;13.07;8.98;;;17.10;99.90;;;;;;5032856;28;20042;-34
2022/08/19 06:08:37;;;;;;;13.93;9.05;;;17.10;99.90;;;;;;5037685;28;20126;-34
2022/08/19 06:11:17;;;;;;;11.65;8.52;;;17.10;99.90;;;;;;5033291;28;20176;-34
2022/08/19 06:13:44;;;;;;;11.70;7.95;;;17.20;99.90;;;;;;5037178;28;20033;-34
2022/08/19 06:16:10;;;;;;;10.02;7.57;;;17.30;99.90;;;;;;5033496;28;20119;-34
2022/08/19 06:18:36;;;;;;;11.52;8.18;;;17.40;99.90;;;;;;5043317;28;20249;-51
2022/08/19 06:21:03;;;;;;;12.75;9.02;;;17.40;99.90;;;;;;5036697;28;20040;-34
2022/08/19 06:23:30;;;;;;;13.82;9.20;;;17.50;99.90;;;;;;5036619;28;20068;-34
2022/08/19 06:25:56;;;;;;;13.13;9.77;;;17.50;99.90;;;;;;5032819;28;20095;-34
2022/08/19 06:28:23;;;;;;;11.57;7.97;;;17.60;99.90;;;;;;5036421;28;20038;-34
2022/08/19 06:30:49;;;;;;;11.02;8.68;;;17.70;99.90;;;;;;5036461;28;20044;-34
2022/08/19 06:33:15;;;;;;;11.88;9.50;;;17.80;99.90;;;;;;5037948;28;20501;-34
2022/08/19 06:35:41;;;;;;;12.27;9.10;;;17.80;99.90;;;;;;5045124;28;20036;-34
2022/08/19 06:38:09;;;;;;;14.18;9.27;;;17.80;99.90;;;;;;5048229;28;20045;-34
2022/08/19 06:40:36;;;;;;;13.32;8.65;;;17.90;99.90;;;;;;5045620;28;20037;-34
2022/08/19 06:43:02;;;;;;;11.50;9.02;;;17.90;99.90;;;;;;5040166;28;20469;-34
2022/08/19 06:45:28;;;;;;;13.52;9.35;;;17.90;99.90;;;;;;5040984;28;20548;-34
2022/08/19 06:47:55;;;;;;;14.38;9.75;;;17.90;99.90;;;;;;5045749;28;20033;-34
2022/08/19 06:50:22;;;;;;;12.43;9.32;;;17.90;99.90;;;;;;5041337;28;20033;-34
2022/08/19 06:52:47;;;;;;;14.73;10.48;;;18.00;99.90;;;;;;5040576;28;20044;-34
2022/08/19 06:55:14;;;;;;;13.63;10.32;;;18.10;99.90;;;;;;5039752;28;20037;-34
2022/08/19 06:57:39;;;;;;;11.27;8.38;;;18.20;99.90;;;;;;5045019;28;20040;-46
2022/08/19 07:00:10;;;;;;;9.13;6.30;;;18.30;99.90;;;;;;5041753;28;20041;-33
2022/08/19 07:02:37;;;;;;;7.72;5.88;;;18.30;99.90;;;;;;5039885;28;20033;-35
2022/08/19 07:05:05;;;;;;;10.30;7.43;;;18.50;99.90;;;;;;5041469;28;20107;-34
2022/08/19 07:07:31;;;;;;;14.50;9.38;;;18.60;99.90;;;;;;5034052;28;20591;-34
2022/08/19 07:09:56;;;;;;;10.13;8.25;;;18.80;99.90;;;;;;5042298;28;20086;-37
2022/08/19 07:12:22;;;;;;;11.15;8.57;;;18.90;99.90;;;;;;5040675;28;20095;-35
2022/08/19 07:14:49;;;;;;;5.63;4.25;;;19.10;99.90;;;;;;5044522;28;20072;-34
2022/08/19 07:17:15;;;;;;;11.38;8.75;;;19.20;99.90;;;;;;5039784;28;20052;-34
2022/08/19 07:19:42;;;;;;;10.77;6.93;;;19.40;99.90;;;;;;5042364;28;20041;-35
2022/08/19 07:22:09;;;;;;;11.43;8.63;;;19.50;99.90;;;;;;5041390;28;20046;-36
2022/08/19 07:24:37;;;;;;;10.68;7.22;;;19.60;99.90;;;;;;5036215;28;20037;-34
2022/08/19 07:27:05;;;;;;;7.68;4.50;;;19.70;99.90;;;;;;5043110;28;20340;-34
2022/08/19 07:29:34;;;;;;;8.80;4.20;;;19.80;99.90;;;;;;5034832;28;20565;-35
2022/08/19 07:32:01;;;;;;;10.75;7.70;;;20.00;99.90;;;;;;5046210;28;20071;-34
2022/08/19 07:34:29;;;;;;;12.88;8.23;;;20.20;99.90;;;;;;5044455;28;20042;-35
2022/08/19 07:36:55;;;;;;;14.82;10.48;;;20.30;99.90;;;;;;5038627;28;20380;-35
2022/08/19 07:39:26;;;;;;;13.55;10.30;;;20.40;99.90;;;;;;5039637;28;20191;-35
2022/08/19 07:41:52;;;;;;;13.55;9.15;;;20.50;99.90;;;;;;5041501;28;20037;-35
2022/08/19 07:44:20;;;;;;;10.05;7.75;;;20.50;99.90;;;;;;5044005;28;20530;-36
2022/08/19 07:46:49;;;;;;;14.52;10.30;;;20.60;99.90;;;;;;5042490;28;20045;-35
2022/08/19 07:49:18;;;;;;;14.63;11.50;;;20.70;99.90;;;;;;5041287;28;20063;-35
2022/08/19 07:51:57;;;;;;;14.70;11.70;;;20.70;99.90;;;;;;5043029;28;20462;-35
2022/08/19 07:54:24;;;;;;;11.15;8.85;;;20.80;99.90;;;;;;5043031;28;20079;-39
2022/08/19 07:56:50;;;;;;;14.27;11.75;;;20.80;99.90;;;;;;5042481;28;20046;-35
2022/08/19 07:59:17;;;;;;;10.52;7.18;;;20.90;99.90;;;;;;5041203;28;20447;-35
2022/08/19 08:01:44;;;;;;;15.65;12.15;;;21.00;99.90;;;;;;5036182;28;20025;-36
2022/08/19 08:09:43;;;;;;;13.95;10.38;;;21.30;99.90;;;;;;5033872;28;20564;-35
2022/08/19 08:12:25;;;;;;;17.33;10.52;;;21.40;99.90;;;;;;5044971;28;20136;-35
2022/08/19 08:14:56;;;;;;;13.85;10.15;;;21.50;99.90;;;;;;5044735;28;20056;-35
2022/08/19 08:17:25;;;;;;;14.93;10.77;;;21.60;99.90;;;;;;5042862;28;20131;-36
2022/08/19 08:19:52;;;;;;;14.43;12.13;;;21.70;99.90;;;;;;5038196;28;20311;-35
2022/08/19 08:25:07;;;;;;;12.05;8.85;;;21.90;99.90;;;;;;5038256;28;20095;-35
2022/08/19 08:27:41;;;;;;;12.00;9.90;;;22.00;99.90;;;;;;5037817;28;20475;-35
2022/08/19 08:30:16;;;;;;;14.32;10.30;;;22.10;99.90;;;;;;5044055;28;20052;-35
2022/08/19 08:32:42;;;;;;;13.02;10.27;;;22.10;99.90;;;;;;5047316;28;20040;-35
2022/08/19 08:35:12;;;;;;;16.20;10.07;;;22.30;99.90;;;;;;5046158;28;20404;-36
2022/08/19 08:37:38;;;;;;;12.52;10.20;;;22.30;99.90;;;;;;5040508;28;20083;-36
2022/08/19 08:40:23;;;;;;;15.02;11.38;;;22.40;99.90;;;;;;5042779;28;20046;-35
2022/08/19 08:43:00;;;;;;;15.07;10.32;;;22.40;99.90;;;;;;5043379;28;20116;-36
2022/08/19 08:45:28;;;;;;;10.63;8.43;;;22.50;99.90;;;;;;5043374;28;20040;-36
2022/08/19 08:47:58;;;;;;;14.65;9.88;;;22.60;99.90;;;;;;5041458;28;20515;-35
2022/08/19 08:50:53;;;;;;;12.57;8.40;;;22.70;99.90;;;;;;5034487;28;20075;-36
2022/08/19 08:53:20;;;;;;;13.00;11.18;;;22.80;99.90;;;;;;5043279;28;20127;-35
2022/08/19 08:55:47;;;;;;;14.18;10.40;;;22.90;99.90;;;;;;5039198;28;20087;-35
2022/08/19 08:58:19;;;;;;;16.20;11.10;;;23.00;99.90;;;;;;5039720;28;20049;-36
2022/08/19 09:00:48;;;;;;;10.85;7.07;;;23.00;99.90;;;;;;5042597;28;20036;-35
2022/08/19 09:03:25;;;;;;;12.63;9.05;;;23.00;99.90;;;;;;5039519;28;20120;-35
2022/08/19 09:06:05;;;;;;;13.32;10.23;;;23.10;99.90;;;;;;5034808;28;20033;-36
2022/08/19 09:09:03;;;;;;;12.82;9.25;;;23.20;99.90;;;;;;5039958;28;20041;-35
2022/08/19 09:11:29;;;;;;;10.40;8.45;;;23.20;99.90;;;;;;5041267;28;20043;-36
2022/08/19 09:14:20;;;;;;;14.85;11.50;;;23.30;99.90;;;;;;5039439;28;20029;-35
2022/08/19 09:16:48;;;;;;;14.93;10.98;;;23.40;99.90;;;;;;5037941;28;20037;-35
2022/08/19 09:19:13;;;;;;;13.75;9.95;;;23.40;99.90;;;;;;5038498;28;20049;-35
2022/08/19 09:21:39;;;;;;;14.73;10.15;;;23.50;99.90;;;;;;5039736;28;20126;-36
2022/08/19 09:24:05;;;;;;;12.68;10.05;;;23.60;99.90;;;;;;5042216;28;20037;-35
2022/08/19 09:26:34;;;;;;;12.70;10.43;;;23.60;99.90;;;;;;5038699;28;20464;-36
2022/08/19 09:29:01;;;;;;;13.55;10.20;;;23.50;99.90;;;;;;5035970;28;20041;-36
2022/08/19 09:31:29;;;;;;;13.20;10.52;;;23.40;99.90;;;;;;5043285;28;20486;-35
2022/08/19 09:33:58;;;;;;;9.32;7.50;;;23.50;99.90;;;;;;5036155;28;20129;-35
2022/08/19 09:36:26;;;;;;;14.88;11.20;;;23.50;99.80;;;;;;5043383;28;20565;-40
2022/08/19 09:38:52;;;;;;;14.27;10.23;;;23.70;99.50;;;;;;5034197;28;20041;-35
2022/08/19 09:41:21;;;;;;;15.95;11.23;;;23.70;99.50;;;;;;5041462;28;20037;-36
2022/08/19 09:43:51;;;;;;;14.23;11.60;;;23.80;99.70;;;;;;5045157;28;20466;-35
2022/08/19 09:46:19;;;;;;;15.38;12.65;;;23.90;99.80;;;;;;5040063;28;20048;-36
2022/08/19 09:48:48;;;;;;;14.48;10.50;;;23.90;99.60;;;;;;5040880;28;20091;-36
2022/08/19 09:51:16;;;;;;;17.88;12.65;;;24.00;99.20;;;;;;5037430;28;20076;-36
2022/08/19 09:53:44;;;;;;;16.77;12.60;;;24.10;99.00;;;;;;5037669;28;20041;-35
2022/08/19 09:56:10;;;;;;;13.57;11.65;;;24.10;98.70;;;;;;5041180;28;20115;-36
2022/08/19 09:58:37;;;;;;;15.30;12.02;;;24.10;98.40;;;;;;5034731;28;20387;-36
2022/08/19 10:01:04;;;;;;;15.45;13.85;;;24.10;98.40;;;;;;5042806;28;20526;-36
2022/08/19 10:03:32;;;;;;;13.82;10.95;;;24.20;98.20;;;;;;5037339;28;20490;-36
2022/08/19 10:06:00;;;;;;;18.65;15.32;;;24.20;97.60;;;;;;5042600;28;20449;-35
2022/08/19 10:08:30;;;;;;;19.85;15.48;;;24.00;97.50;;;;;;5041722;28;20457;-35
2022/08/19 10:10:56;;;;;;;16.98;14.40;;;24.00;96.90;;;;;;5035093;28;20038;-36
2022/08/19 10:13:25;;;;;;;15.15;13.07;;;24.00;96.60;;;;;;5041135;28;20120;-35
2022/08/19 10:15:56;;;;;;;16.08;13.02;;;23.90;96.60;;;;;;5034750;28;20038;-55
2022/08/19 10:18:23;;;;;;;16.05;12.10;;;23.80;96.50;;;;;;5041751;28;20061;-35
2022/08/19 10:20:52;;;;;;;14.48;12.55;;;23.90;96.80;;;;;;5038623;28;20038;-36
2022/08/19 10:23:19;;;;;;;14.90;11.77;;;23.90;96.10;;;;;;5042025;28;20033;-36
2022/08/19 10:25:45;;;;;;;15.27;12.88;;;24.00;96.20;;;;;;5037704;28;20122;-36
2022/08/19 10:28:11;;;;;;;17.33;13.40;;;24.20;95.00;;;;;;5038445;28;20119;-35
2022/08/19 10:30:38;;;;;;;14.15;11.27;;;24.30;95.90;;;;;;5036095;28;20040;-36
2022/08/19 10:33:05;;;;;;;13.73;11.57;;;24.40;95.30;;;;;;5034320;28;20049;-36
2022/08/19 10:35:31;;;;;;;14.30;11.77;;;24.60;94.60;;;;;;5039395;28;20928;-35
2022/08/19 10:38:01;;;;;;;15.43;12.90;;;24.60;93.90;;;;;;5037851;28;20063;-35
2022/08/19 10:40:28;;;;;;;19.35;14.02;;;24.70;93.50;;;;;;5036783;28;20102;-36
2022/08/19 10:42:55;;;;;;;13.52;10.52;;;24.70;93.00;;;;;;5039012;28;20037;-36
2022/08/19 10:45:25;;;;;;;16.92;14.40;;;24.80;93.10;;;;;;5039735;28;20170;-36
2022/08/19 10:47:52;;;;;;;13.65;11.10;;;24.90;92.80;;;;;;5037590;28;20447;-35
2022/08/19 10:53:10;;;;;;;17.63;13.43;;;25.10;91.50;;;;;;5037270;28;20055;-36
2022/08/19 10:58:22;;;;;;;16.60;13.25;;;25.10;91.20;;;;;;5039924;28;20613;-36
2022/08/19 11:00:53;;;;;;;15.10;12.38;;;25.20;91.60;;;;;;5038071;28;20505;-36
2022/08/19 11:03:19;;;;;;;15.90;13.75;;;25.30;91.50;;;;;;5039691;28;20044;-36
2022/08/19 11:05:44;;;;;;;19.98;15.77;;;25.40;91.50;;;;;;5042031;28;20054;-36
2022/08/19 11:08:11;;;;;;;19.63;15.68;;;25.50;91.30;;;;;;5042857;28;20076;-36
2022/08/19 11:10:42;;;;;;;20.35;15.57;;;25.60;91.30;;;;;;5034484;28;20049;-41
2022/08/19 11:13:08;;;;;;;18.65;12.82;;;25.70;91.10;;;;;;5037971;28;20131;-35
2022/08/19 11:15:33;;;;;;;14.98;12.48;;;25.70;90.50;;;;;;5038569;28;20128;-35
2022/08/19 11:18:00;;;;;;;15.68;12.55;;;25.80;90.70;;;;;;5036061;28;20057;-36
2022/08/19 11:20:25;;;;;;;18.60;14.40;;;25.70;89.80;;;;;;5041390;28;20132;-35
2022/08/19 11:22:53;;;;;;;17.35;13.32;;;25.80;90.20;;;;;;5037894;28;20120;-35
2022/08/19 11:25:19;;;;;;;14.52;11.50;;;25.80;90.30;;;;;;5036040;28;20080;-36
2022/08/19 11:27:45;;;;;;;17.08;13.27;;;25.90;90.20;;;;;;5043647;28;20037;-36
2022/08/19 11:30:13;;;;;;;15.68;13.07;;;25.90;89.90;;;;;;5037090;28;20052;-36
2022/08/19 11:32:41;;;;;;;15.80;12.25;;;25.90;88.80;;;;;;5037867;28;20037;-35
2022/08/19 11:35:07;;;;;;;15.90;12.18;;;25.80;89.00;;;;;;5043744;28;20043;-35
2022/08/19 11:37:36;;;;;;;15.13;12.77;;;25.90;89.50;;;;;;5041147;28;20036;-35
2022/08/19 11:40:04;;;;;;;15.23;11.25;;;26.00;89.30;;;;;;5041835;28;20494;-36
2022/08/19 11:45:14;;;;;;;12.93;10.63;;;26.20;87.30;;;;;;5034945;28;20083;-37
2022/08/19 11:47:39;;;;;;;14.77;11.23;;;26.20;87.30;;;;;;5038902;28;20123;-36
2022/08/19 11:50:05;;;;;;;14.85;10.25;;;26.40;87.70;;;;;;5039633;28;20491;-36
2022/08/19 11:52:31;;;;;;;15.98;12.23;;;26.70;87.00;;;;;;5045094;28;20037;-35
2022/08/19 11:54:57;;;;;;;16.23;12.00;;;26.90;85.90;;;;;;5041281;28;20414;-45
2022/08/19 11:57:23;;;;;;;13.20;10.93;;;27.00;85.10;;;;;;5044629;28;20080;-36
2022/08/19 11:59:51;;;;;;;11.95;8.52;;;27.00;85.40;;;;;;5042010;28;20047;-35
2022/08/19 12:02:17;;;;;;;11.95;10.00;;;26.80;86.10;;;;;;5038738;28;20065;-35
2022/08/19 12:04:43;;;;;;;12.57;9.85;;;26.70;86.70;;;;;;5042926;28;20072;-35
2022/08/19 12:07:08;;;;;;;12.70;9.45;;;26.60;86.00;;;;;;5047122;28;20037;-39
2022/08/19 12:09:34;;;;;;;17.50;11.70;;;26.70;85.10;;;;;;5043752;28;20041;-36
2022/08/19 12:12:01;;;;;;;10.27;8.93;;;26.80;84.40;;;;;;5043706;28;20059;-36
2022/08/19 12:14:31;;;;;;;12.07;8.60;;;26.90;84.00;;;;;;5041181;28;20383;-35
2022/08/19 12:16:57;;;;;;;14.20;9.82;;;26.90;82.80;;;;;;5039091;28;20139;-35
2022/08/19 12:19:24;;;;;;;11.45;8.73;;;27.00;83.00;;;;;;5041375;28;20057;-35
2022/08/19 12:21:52;;;;;;;11.00;8.55;;;26.90;82.50;;;;;;5038945;28;20043;-35
2022/08/19 12:24:22;;;;;;;10.55;8.60;;;27.00;83.30;;;;;;5036026;28;20516;-35
2022/08/19 12:26:48;;;;;;;14.77;10.02;;;27.10;82.80;;;;;;5040674;28;20033;-35
2022/08/19 12:29:15;;;;;;;15.27;10.23;;;27.20;81.00;;;;;;5037519;28;20126;-35
2022/08/19 12:31:40;;;;;;;11.25;9.65;;;27.20;81.90;;;;;;5037556;28;20080;-35
2022/08/19 12:34:07;;;;;;;11.90;8.45;;;27.30;82.00;;;;;;5039383;28;20068;-41
2022/08/19 12:36:33;;;;;;;11.50;9.30;;;27.40;82.00;;;;;;5036544;28;20044;-36
2022/08/19 12:38:59;;;;;;;12.73;8.38;;;27.50;81.50;;;;;;5039981;28;20544;-35
2022/08/19 12:41:25;;;;;;;8.13;6.43;;;27.50;79.90;;;;;;5038899;28;20037;-36
2022/08/19 12:43:52;;;;;;;13.88;9.15;;;27.60;79.20;;;;;;5041770;28;20036;-35
2022/08/19 12:46:19;;;;;;;15.50;10.38;;;27.70;79.20;;;;;;5040538;28;20034;-35
2022/08/19 12:48:45;;;;;;;14.05;11.98;;;27.80;79.30;;;;;;5044702;28;20086;-36
2022/08/19 12:51:16;;;;;;;11.02;9.50;;;27.90;78.80;;;;;;5042476;28;20048;-36
2022/08/19 12:53:42;;;;;;;15.10;10.52;;;27.80;78.40;;;;;;5037227;28;20030;-35
2022/08/19 12:56:10;;;;;;;14.48;11.40;;;28.00;79.10;;;;;;5040391;28;20406;-36
2022/08/19 12:58:36;;;;;;;15.35;11.60;;;28.10;78.60;;;;;;5035477;28;20132;-35
2022/08/19 13:01:14;;;;;;;13.85;9.43;;;28.30;77.60;;;;;;5040927;28;20037;-35
2022/08/19 13:03:41;;;;;;;12.63;10.57;;;28.40;77.50;;;;;;5037280;28;20499;-36
2022/08/19 13:06:08;;;;;;;11.90;8.95;;;28.40;75.70;;;;;;5039618;28;20041;-36
2022/08/19 13:08:34;;;;;;;12.50;9.48;;;28.50;75.00;;;;;;5046233;28;20116;-35